sensor_id;sensor_type;location;lat;lon;timestamp;pressure;altitude;pressure_sealevel;temperature;humidity
41040;BME280;48586;50.122;18.972;2022-10-28T00:00:19;99758.63;;;10.01;73.61
41040;BME280;48586;50.122;18.972;2022-10-28T00:03:21;99748.22;;;10.00;73.63
41040;BME280;48586;50.122;18.972;2022-10-28T00:06:24;99756.16;;;10.00;73.63
41040;BME280;48586;50.122;18.972;2022-10-28T00:09:28;99751.03;;;9.98;73.58
41040;BME280;48586;50.122;18.972;2022-10-28T00:12:33;99747.94;;;9.94;73.66
41040;BME280;48586;50.122;18.972;2022-10-28T00:15:35;99752.75;;;9.91;73.64
41040;BME280;48586;50.122;18.972;2022-10-28T00:18:37;99751.28;;;9.88;73.63
41040;BME280;48586;50.122;18.972;2022-10-28T00:21:41;99748.31;;;9.83;73.27
41040;BME280;48586;50.122;18.972;2022-10-28T00:24:45;99754.69;;;9.74;73.23
41040;BME280;48586;50.122;18.972;2022-10-28T00:27:46;99744.31;;;9.64;73.42
41040;BME280;48586;50.122;18.972;2022-10-28T00:30:48;99742.84;;;9.62;73.59
41040;BME280;48586;50.122;18.972;2022-10-28T00:33:50;99730.25;;;9.64;73.60
41040;BME280;48586;50.122;18.972;2022-10-28T00:36:52;99729.41;;;9.63;73.49
41040;BME280;48586;50.122;18.972;2022-10-28T00:39:55;99727.97;;;9.61;73.22
41040;BME280;48586;50.122;18.972;2022-10-28T00:42:57;99731.66;;;9.52;73.28
41040;BME280;48586;50.122;18.972;2022-10-28T00:45:59;99730.00;;;9.51;73.53
41040;BME280;48586;50.122;18.972;2022-10-28T00:49:04;99727.34;;;9.51;73.39
41040;BME280;48586;50.122;18.972;2022-10-28T00:52:08;99720.75;;;9.47;73.75
41040;BME280;48586;50.122;18.972;2022-10-28T00:55:14;99716.16;;;9.40;73.61
41040;BME280;48586;50.122;18.972;2022-10-28T00:58:18;99718.00;;;9.40;73.70
41040;BME280;48586;50.122;18.972;2022-10-28T01:01:21;99709.22;;;9.39;73.59
41040;BME280;48586;50.122;18.972;2022-10-28T01:04:24;99704.75;;;9.40;73.47
41040;BME280;48586;50.122;18.972;2022-10-28T01:07:27;99700.00;;;9.35;73.66
41040;BME280;48586;50.122;18.972;2022-10-28T01:10:39;99700.00;;;9.35;73.60
41040;BME280;48586;50.122;18.972;2022-10-28T01:13:53;99696.56;;;9.27;73.48
41040;BME280;48586;50.122;18.972;2022-10-28T01:20:54;99684.34;;;9.26;73.75
41040;BME280;48586;50.122;18.972;2022-10-28T01:24:18;99688.69;;;9.18;73.27
41040;BME280;48586;50.122;18.972;2022-10-28T01:27:58;99689.75;;;9.01;73.27
41040;BME280;48586;50.122;18.972;2022-10-28T01:31:17;99688.28;;;8.90;73.69
41040;BME280;48586;50.122;18.972;2022-10-28T01:34:28;99684.00;;;8.89;73.80
41040;BME280;48586;50.122;18.972;2022-10-28T01:37:35;99686.34;;;8.84;73.61
41040;BME280;48586;50.122;18.972;2022-10-28T01:40:45;99691.81;;;8.75;73.87
41040;BME280;48586;50.122;18.972;2022-10-28T01:43:53;99697.75;;;8.68;73.97
41040;BME280;48586;50.122;18.972;2022-10-28T01:47:03;99693.66;;;8.66;74.10
41040;BME280;48586;50.122;18.972;2022-10-28T01:50:11;99690.00;;;8.67;74.37
41040;BME280;48586;50.122;18.972;2022-10-28T01:53:17;99685.72;;;8.66;73.99
41040;BME280;48586;50.122;18.972;2022-10-28T01:56:25;99691.84;;;8.58;74.13
41040;BME280;48586;50.122;18.972;2022-10-28T01:59:29;99681.78;;;8.54;74.80
41040;BME280;48586;50.122;18.972;2022-10-28T02:02:35;99674.16;;;8.59;74.98
41040;BME280;48586;50.122;18.972;2022-10-28T02:05:41;99663.41;;;8.68;75.04
41040;BME280;48586;50.122;18.972;2022-10-28T02:08:52;99669.50;;;8.77;74.93
41040;BME280;48586;50.122;18.972;2022-10-28T02:12:05;99663.06;;;8.80;74.92
41040;BME280;48586;50.122;18.972;2022-10-28T02:15:22;99672.81;;;8.79;74.71
41040;BME280;48586;50.122;18.972;2022-10-28T02:18:32;99667.34;;;8.81;75.45
41040;BME280;48586;50.122;18.972;2022-10-28T02:21:46;99671.78;;;8.88;75.21
41040;BME280;48586;50.122;18.972;2022-10-28T02:24:57;99676.38;;;8.94;75.52
41040;BME280;48586;50.122;18.972;2022-10-28T02:28:05;99664.78;;;9.04;75.71
41040;BME280;48586;50.122;18.972;2022-10-28T02:31:17;99655.97;;;9.11;75.69
41040;BME280;48586;50.122;18.972;2022-10-28T02:34:26;99658.56;;;9.19;75.74
41040;BME280;48586;50.122;18.972;2022-10-28T02:37:32;99660.69;;;9.24;75.55
41040;BME280;48586;50.122;18.972;2022-10-28T02:40:38;99661.53;;;9.25;75.69
41040;BME280;48586;50.122;18.972;2022-10-28T02:43:41;99655.41;;;9.24;75.27
41040;BME280;48586;50.122;18.972;2022-10-28T02:46:46;99655.06;;;9.27;75.72
41040;BME280;48586;50.122;18.972;2022-10-28T02:49:55;99655.53;;;9.31;75.39
41040;BME280;48586;50.122;18.972;2022-10-28T02:52:59;99647.75;;;9.29;75.56
41040;BME280;48586;50.122;18.972;2022-10-28T02:56:04;99647.44;;;9.32;75.80
41040;BME280;48586;50.122;18.972;2022-10-28T02:59:08;99650.75;;;9.34;75.59
41040;BME280;48586;50.122;18.972;2022-10-28T03:02:11;99640.97;;;9.35;75.42
41040;BME280;48586;50.122;18.972;2022-10-28T03:05:14;99634.88;;;9.34;75.46
41040;BME280;48586;50.122;18.972;2022-10-28T03:08:16;99634.19;;;9.32;75.54
41040;BME280;48586;50.122;18.972;2022-10-28T03:11:18;99631.41;;;9.34;75.59
41040;BME280;48586;50.122;18.972;2022-10-28T03:14:19;99636.03;;;9.32;75.36
41040;BME280;48586;50.122;18.972;2022-10-28T03:17:21;99634.97;;;9.18;74.86
41040;BME280;48586;50.122;18.972;2022-10-28T03:20:24;99639.00;;;9.06;75.15
41040;BME280;48586;50.122;18.972;2022-10-28T03:23:26;99632.41;;;9.02;75.61
41040;BME280;48586;50.122;18.972;2022-10-28T03:26:28;99628.75;;;9.03;75.61
41040;BME280;48586;50.122;18.972;2022-10-28T03:29:30;99620.81;;;9.03;75.50
41040;BME280;48586;50.122;18.972;2022-10-28T03:32:31;99626.47;;;9.00;75.57
41040;BME280;48586;50.122;18.972;2022-10-28T03:35:34;99622.63;;;9.02;75.64
41040;BME280;48586;50.122;18.972;2022-10-28T03:38:36;99624.94;;;9.05;75.61
41040;BME280;48586;50.122;18.972;2022-10-28T03:41:38;99625.94;;;9.04;75.39
41040;BME280;48586;50.122;18.972;2022-10-28T03:44:39;99628.59;;;9.04;75.65
41040;BME280;48586;50.122;18.972;2022-10-28T03:47:41;99623.94;;;9.06;75.44
41040;BME280;48586;50.122;18.972;2022-10-28T03:50:44;99620.47;;;9.06;75.42
41040;BME280;48586;50.122;18.972;2022-10-28T03:53:46;99612.88;;;9.03;75.15
41040;BME280;48586;50.122;18.972;2022-10-28T03:56:50;99607.63;;;8.94;74.95
41040;BME280;48586;50.122;18.972;2022-10-28T03:59:52;99608.88;;;8.84;74.99
41040;BME280;48586;50.122;18.972;2022-10-28T04:02:54;99616.97;;;8.74;75.02
41040;BME280;48586;50.122;18.972;2022-10-28T04:05:57;99620.31;;;8.60;75.16
41040;BME280;48586;50.122;18.972;2022-10-28T04:08:59;99609.84;;;8.43;75.11
41040;BME280;48586;50.122;18.972;2022-10-28T04:12:01;99610.84;;;8.34;75.48
41040;BME280;48586;50.122;18.972;2022-10-28T04:15:03;99605.56;;;8.34;75.82
41040;BME280;48586;50.122;18.972;2022-10-28T04:18:06;99610.16;;;8.40;75.79
41040;BME280;48586;50.122;18.972;2022-10-28T04:21:09;99616.47;;;8.31;75.57
41040;BME280;48586;50.122;18.972;2022-10-28T04:24:11;99622.78;;;8.22;75.74
41040;BME280;48586;50.122;18.972;2022-10-28T04:27:13;99620.13;;;8.22;75.54
41040;BME280;48586;50.122;18.972;2022-10-28T04:30:15;99601.28;;;8.25;76.01
41040;BME280;48586;50.122;18.972;2022-10-28T04:33:17;99599.81;;;8.31;76.28
41040;BME280;48586;50.122;18.972;2022-10-28T04:36:20;99600.25;;;8.42;76.03
41040;BME280;48586;50.122;18.972;2022-10-28T04:39:22;99598.28;;;8.44;76.00
41040;BME280;48586;50.122;18.972;2022-10-28T04:42:24;99598.91;;;8.47;75.78
41040;BME280;48586;50.122;18.972;2022-10-28T04:45:25;99594.44;;;8.47;75.99
41040;BME280;48586;50.122;18.972;2022-10-28T04:48:27;99596.25;;;8.47;75.96
41040;BME280;48586;50.122;18.972;2022-10-28T04:51:30;99605.00;;;8.47;75.98
41040;BME280;48586;50.122;18.972;2022-10-28T04:54:32;99609.47;;;8.47;75.67
41040;BME280;48586;50.122;18.972;2022-10-28T04:57:33;99611.16;;;8.39;75.69
41040;BME280;48586;50.122;18.972;2022-10-28T05:00:35;99608.56;;;8.31;75.64
41040;BME280;48586;50.122;18.972;2022-10-28T05:03:37;99602.59;;;8.29;75.87
41040;BME280;48586;50.122;18.972;2022-10-28T05:06:40;99597.81;;;8.33;76.04
41040;BME280;48586;50.122;18.972;2022-10-28T05:09:42;99591.50;;;8.42;75.87
41040;BME280;48586;50.122;18.972;2022-10-28T05:12:44;99591.47;;;8.50;76.02
41040;BME280;48586;50.122;18.972;2022-10-28T05:15:47;99584.00;;;8.62;76.18
41040;BME280;48586;50.122;18.972;2022-10-28T05:18:49;99582.63;;;8.74;76.16
41040;BME280;48586;50.122;18.972;2022-10-28T05:21:52;99581.28;;;8.86;75.69
41040;BME280;48586;50.122;18.972;2022-10-28T05:24:53;99581.56;;;8.91;75.69
41040;BME280;48586;50.122;18.972;2022-10-28T05:27:57;99581.88;;;8.97;75.47
41040;BME280;48586;50.122;18.972;2022-10-28T05:30:59;99580.88;;;8.98;75.46
41040;BME280;48586;50.122;18.972;2022-10-28T05:34:01;99585.81;;;9.01;75.05
41040;BME280;48586;50.122;18.972;2022-10-28T05:37:04;99585.97;;;8.99;75.24
41040;BME280;48586;50.122;18.972;2022-10-28T05:40:07;99582.88;;;8.96;74.98
41040;BME280;48586;50.122;18.972;2022-10-28T05:43:09;99591.00;;;8.86;74.68
41040;BME280;48586;50.122;18.972;2022-10-28T05:46:11;99596.81;;;8.73;74.94
41040;BME280;48586;50.122;18.972;2022-10-28T05:49:14;99586.75;;;8.68;75.01
41040;BME280;48586;50.122;18.972;2022-10-28T05:52:21;99583.16;;;8.69;75.26
41040;BME280;48586;50.122;18.972;2022-10-28T05:55:25;99588.06;;;8.73;74.94
41040;BME280;48586;50.122;18.972;2022-10-28T05:58:27;99587.91;;;8.74;75.18
41040;BME280;48586;50.122;18.972;2022-10-28T06:01:29;99588.53;;;8.76;75.21
41040;BME280;48586;50.122;18.972;2022-10-28T06:04:32;99586.41;;;8.80;75.17
41040;BME280;48586;50.122;18.972;2022-10-28T06:07:35;99591.84;;;8.86;75.16
41040;BME280;48586;50.122;18.972;2022-10-28T06:10:38;99592.78;;;8.93;75.10
41040;BME280;48586;50.122;18.972;2022-10-28T06:13:40;99591.44;;;8.98;74.79
41040;BME280;48586;50.122;18.972;2022-10-28T06:16:44;99592.41;;;9.05;74.90
41040;BME280;48586;50.122;18.972;2022-10-28T06:19:46;99595.00;;;9.13;74.95
41040;BME280;48586;50.122;18.972;2022-10-28T06:22:50;99592.31;;;9.21;74.80
41040;BME280;48586;50.122;18.972;2022-10-28T06:25:56;99594.50;;;9.32;74.91
41040;BME280;48586;50.122;18.972;2022-10-28T06:28:59;99588.81;;;9.43;74.76
41040;BME280;48586;50.122;18.972;2022-10-28T06:32:00;99594.50;;;9.55;75.21
41040;BME280;48586;50.122;18.972;2022-10-28T06:35:03;99597.91;;;9.64;75.10
41040;BME280;48586;50.122;18.972;2022-10-28T06:38:06;99605.44;;;9.75;75.23
41040;BME280;48586;50.122;18.972;2022-10-28T06:41:08;99597.75;;;9.80;75.09
41040;BME280;48586;50.122;18.972;2022-10-28T06:44:10;99607.47;;;9.88;75.28
41040;BME280;48586;50.122;18.972;2022-10-28T06:47:12;99600.47;;;9.95;75.35
41040;BME280;48586;50.122;18.972;2022-10-28T06:50:14;99605.56;;;10.11;75.44
41040;BME280;48586;50.122;18.972;2022-10-28T06:53:50;99598.28;;;10.28;75.19
41040;BME280;48586;50.122;18.972;2022-10-28T06:56:52;99609.88;;;10.27;75.13
41040;BME280;48586;50.122;18.972;2022-10-28T06:59:53;99612.25;;;10.37;75.00
41040;BME280;48586;50.122;18.972;2022-10-28T07:02:56;99609.41;;;10.53;75.33
41040;BME280;48586;50.122;18.972;2022-10-28T07:05:58;99612.94;;;10.68;74.65
41040;BME280;48586;50.122;18.972;2022-10-28T07:09:01;99623.34;;;10.70;74.60
41040;BME280;48586;50.122;18.972;2022-10-28T07:12:04;99622.59;;;10.76;75.02
41040;BME280;48586;50.122;18.972;2022-10-28T07:15:08;99624.59;;;10.89;75.07
41040;BME280;48586;50.122;18.972;2022-10-28T07:18:10;99621.91;;;11.04;75.28
41040;BME280;48586;50.122;18.972;2022-10-28T07:21:12;99623.94;;;11.23;75.33
41040;BME280;48586;50.122;18.972;2022-10-28T07:24:16;99627.06;;;11.48;75.16
41040;BME280;48586;50.122;18.972;2022-10-28T07:27:18;99623.72;;;11.61;74.93
41040;BME280;48586;50.122;18.972;2022-10-28T07:30:20;99628.13;;;11.75;75.01
41040;BME280;48586;50.122;18.972;2022-10-28T07:33:22;99618.19;;;11.84;75.88
41040;BME280;48586;50.122;18.972;2022-10-28T07:36:24;99616.28;;;11.99;75.51
41040;BME280;48586;50.122;18.972;2022-10-28T07:39:27;99621.31;;;12.15;76.12
41040;BME280;48586;50.122;18.972;2022-10-28T07:42:29;99622.03;;;12.31;76.45
41040;BME280;48586;50.122;18.972;2022-10-28T07:45:31;99611.91;;;12.48;76.40
41040;BME280;48586;50.122;18.972;2022-10-28T07:48:33;99613.22;;;12.65;76.40
41040;BME280;48586;50.122;18.972;2022-10-28T07:51:36;99609.84;;;12.84;76.41
41040;BME280;48586;50.122;18.972;2022-10-28T07:54:39;99597.59;;;13.03;76.01
41040;BME280;48586;50.122;18.972;2022-10-28T07:57:41;99603.00;;;13.23;75.74
41040;BME280;48586;50.122;18.972;2022-10-28T08:00:43;99598.09;;;13.46;75.86
41040;BME280;48586;50.122;18.972;2022-10-28T08:03:45;99596.72;;;13.70;75.22
41040;BME280;48586;50.122;18.972;2022-10-28T08:06:48;99594.06;;;13.84;74.96
41040;BME280;48586;50.122;18.972;2022-10-28T08:09:52;99591.59;;;14.09;74.81
41040;BME280;48586;50.122;18.972;2022-10-28T08:12:54;99585.00;;;14.18;74.19
41040;BME280;48586;50.122;18.972;2022-10-28T08:15:56;99589.91;;;14.21;74.63
41040;BME280;48586;50.122;18.972;2022-10-28T08:18:58;99589.69;;;14.36;74.65
41040;BME280;48586;50.122;18.972;2022-10-28T08:22:01;99586.16;;;14.49;74.25
41040;BME280;48586;50.122;18.972;2022-10-28T08:25:05;99582.41;;;14.69;74.34
41040;BME280;48586;50.122;18.972;2022-10-28T08:28:07;99590.94;;;14.85;74.03
41040;BME280;48586;50.122;18.972;2022-10-28T08:31:10;99584.56;;;14.92;73.80
41040;BME280;48586;50.122;18.972;2022-10-28T08:34:12;99588.41;;;15.03;73.45
41040;BME280;48586;50.122;18.972;2022-10-28T08:37:14;99583.75;;;15.30;73.71
41040;BME280;48586;50.122;18.972;2022-10-28T08:40:18;99580.78;;;15.70;72.89
41040;BME280;48586;50.122;18.972;2022-10-28T08:43:29;99580.44;;;15.85;72.61
41040;BME280;48586;50.122;18.972;2022-10-28T08:46:49;99580.84;;;16.13;71.64
41040;BME280;48586;50.122;18.972;2022-10-28T08:49:57;99584.31;;;16.32;71.76
41040;BME280;48586;50.122;18.972;2022-10-28T08:53:05;99578.78;;;16.52;71.27
41040;BME280;48586;50.122;18.972;2022-10-28T08:56:21;99577.19;;;16.63;69.55
41040;BME280;48586;50.122;18.972;2022-10-28T08:59:28;99583.72;;;16.67;69.41
41040;BME280;48586;50.122;18.972;2022-10-28T09:02:44;99592.00;;;16.65;68.46
41040;BME280;48586;50.122;18.972;2022-10-28T09:05:53;99578.88;;;16.76;68.91
41040;BME280;48586;50.122;18.972;2022-10-28T09:08:57;99576.59;;;16.79;67.20
41040;BME280;48586;50.122;18.972;2022-10-28T09:12:19;99573.34;;;17.07;66.46
41040;BME280;48586;50.122;18.972;2022-10-28T09:15:32;99570.88;;;17.06;67.36
41040;BME280;48586;50.122;18.972;2022-10-28T09:18:49;99566.69;;;17.40;66.84
41040;BME280;48586;50.122;18.972;2022-10-28T09:22:19;99570.81;;;17.54;65.44
41040;BME280;48586;50.122;18.972;2022-10-28T09:25:45;99568.28;;;17.83;64.91
41040;BME280;48586;50.122;18.972;2022-10-28T09:29:22;99566.66;;;17.82;64.28
41040;BME280;48586;50.122;18.972;2022-10-28T09:32:53;99561.41;;;18.34;63.83
41040;BME280;48586;50.122;18.972;2022-10-28T09:36:23;99563.53;;;18.72;63.06
41040;BME280;48586;50.122;18.972;2022-10-28T09:39:51;99556.41;;;18.66;61.66
41040;BME280;48586;50.122;18.972;2022-10-28T09:43:20;99559.53;;;19.03;62.62
41040;BME280;48586;50.122;18.972;2022-10-28T09:46:45;99556.13;;;19.08;60.63
41040;BME280;48586;50.122;18.972;2022-10-28T09:50:11;99559.03;;;19.18;59.12
41040;BME280;48586;50.122;18.972;2022-10-28T09:53:40;99562.81;;;19.34;59.35
41040;BME280;48586;50.122;18.972;2022-10-28T09:57:05;99564.53;;;19.57;60.50
41040;BME280;48586;50.122;18.972;2022-10-28T10:00:27;99563.91;;;19.83;58.86
41040;BME280;48586;50.122;18.972;2022-10-28T10:03:51;99562.66;;;20.08;57.65
41040;BME280;48586;50.122;18.972;2022-10-28T10:07:28;99563.50;;;20.30;56.42
41040;BME280;48586;50.122;18.972;2022-10-28T10:10:54;99562.09;;;20.44;56.81
41040;BME280;48586;50.122;18.972;2022-10-28T10:14:17;99561.66;;;20.75;54.87
41040;BME280;48586;50.122;18.972;2022-10-28T10:17:43;99548.34;;;20.90;55.88
41040;BME280;48586;50.122;18.972;2022-10-28T10:21:07;99550.66;;;21.30;57.23
41040;BME280;48586;50.122;18.972;2022-10-28T10:24:31;99553.66;;;21.66;55.05
41040;BME280;48586;50.122;18.972;2022-10-28T10:27:55;99545.81;;;22.02;55.81
41040;BME280;48586;50.122;18.972;2022-10-28T10:31:19;99552.25;;;22.38;53.90
41040;BME280;48586;50.122;18.972;2022-10-28T10:34:23;99548.00;;;22.52;54.39
41040;BME280;48586;50.122;18.972;2022-10-28T10:37:46;99546.78;;;22.33;51.13
41040;BME280;48586;50.122;18.972;2022-10-28T10:40:51;99554.06;;;22.27;51.44
41040;BME280;48586;50.122;18.972;2022-10-28T10:44:24;99545.50;;;21.93;51.03
41040;BME280;48586;50.122;18.972;2022-10-28T10:47:30;99551.97;;;21.92;53.66
41040;BME280;48586;50.122;18.972;2022-10-28T10:50:33;99549.72;;;22.21;53.12
41040;BME280;48586;50.122;18.972;2022-10-28T10:53:38;99548.69;;;22.37;50.89
41040;BME280;48586;50.122;18.972;2022-10-28T10:56:41;99546.75;;;22.85;52.76
41040;BME280;48586;50.122;18.972;2022-10-28T10:59:44;99542.53;;;23.46;50.96
41040;BME280;48586;50.122;18.972;2022-10-28T11:02:47;99535.75;;;23.58;49.76
41040;BME280;48586;50.122;18.972;2022-10-28T11:05:52;99539.00;;;23.45;50.15
41040;BME280;48586;50.122;18.972;2022-10-28T11:08:58;99533.06;;;23.38;47.13
41040;BME280;48586;50.122;18.972;2022-10-28T11:12:13;99541.38;;;23.06;47.42
41040;BME280;48586;50.122;18.972;2022-10-28T11:15:21;99530.28;;;22.87;50.07
41040;BME280;48586;50.122;18.972;2022-10-28T11:18:23;99532.22;;;22.34;50.47
41040;BME280;48586;50.122;18.972;2022-10-28T11:21:48;99536.84;;;21.91;50.17
41040;BME280;48586;50.122;18.972;2022-10-28T11:25:07;99530.16;;;21.66;50.46
41040;BME280;48586;50.122;18.972;2022-10-28T11:28:28;99523.94;;;21.98;51.19
41040;BME280;48586;50.122;18.972;2022-10-28T11:35:28;99531.88;;;22.20;49.49
41040;BME280;48586;50.122;18.972;2022-10-28T11:38:46;99525.09;;;22.12;49.66
41040;BME280;48586;50.122;18.972;2022-10-28T11:42:06;99531.38;;;22.33;50.00
41040;BME280;48586;50.122;18.972;2022-10-28T11:45:15;99522.28;;;21.92;50.33
41040;BME280;48586;50.122;18.972;2022-10-28T11:48:32;99519.44;;;21.72;51.71
41040;BME280;48586;50.122;18.972;2022-10-28T11:51:44;99521.03;;;21.35;52.04
41040;BME280;48586;50.122;18.972;2022-10-28T11:54:57;99521.16;;;21.18;52.93
41040;BME280;48586;50.122;18.972;2022-10-28T11:58:11;99516.66;;;21.29;52.96
41040;BME280;48586;50.122;18.972;2022-10-28T12:01:30;99515.19;;;21.16;52.13
41040;BME280;48586;50.122;18.972;2022-10-28T12:04:52;99519.06;;;20.99;52.18
41040;BME280;48586;50.122;18.972;2022-10-28T12:08:14;99509.94;;;21.00;52.70
41040;BME280;48586;50.122;18.972;2022-10-28T12:11:26;99507.28;;;21.05;53.68
41040;BME280;48586;50.122;18.972;2022-10-28T12:14:39;99509.63;;;20.96;53.48
41040;BME280;48586;50.122;18.972;2022-10-28T12:17:47;99500.94;;;21.21;53.11
41040;BME280;48586;50.122;18.972;2022-10-28T12:20:56;99496.28;;;21.43;53.15
41040;BME280;48586;50.122;18.972;2022-10-28T12:23:59;99493.97;;;21.25;53.42
41040;BME280;48586;50.122;18.972;2022-10-28T12:27:06;99495.19;;;21.39;53.02
41040;BME280;48586;50.122;18.972;2022-10-28T12:30:18;99498.50;;;21.19;52.90
41040;BME280;48586;50.122;18.972;2022-10-28T12:33:26;99494.72;;;20.88;53.27
41040;BME280;48586;50.122;18.972;2022-10-28T12:36:33;99490.25;;;20.50;53.96
41040;BME280;48586;50.122;18.972;2022-10-28T12:39:40;99491.44;;;20.37;54.52
41040;BME280;48586;50.122;18.972;2022-10-28T12:42:48;99490.91;;;20.35;55.26
41040;BME280;48586;50.122;18.972;2022-10-28T12:45:54;99481.09;;;20.29;55.32
41040;BME280;48586;50.122;18.972;2022-10-28T12:49:02;99486.69;;;20.23;55.19
41040;BME280;48586;50.122;18.972;2022-10-28T12:52:15;99484.88;;;20.28;55.37
41040;BME280;48586;50.122;18.972;2022-10-28T12:55:27;99478.69;;;20.28;55.32
41040;BME280;48586;50.122;18.972;2022-10-28T12:58:34;99476.75;;;20.23;55.25
41040;BME280;48586;50.122;18.972;2022-10-28T13:01:38;99479.66;;;20.22;55.09
41040;BME280;48586;50.122;18.972;2022-10-28T13:04:52;99482.19;;;20.06;55.44
41040;BME280;48586;50.122;18.972;2022-10-28T13:08:31;99475.28;;;20.15;55.49
41040;BME280;48586;50.122;18.972;2022-10-28T13:11:58;99465.78;;;20.30;55.91
41040;BME280;48586;50.122;18.972;2022-10-28T13:15:21;99466.28;;;20.27;56.10
41040;BME280;48586;50.122;18.972;2022-10-28T13:18:39;99471.09;;;20.25;56.02
41040;BME280;48586;50.122;18.972;2022-10-28T13:22:08;99468.91;;;20.22;56.53
41040;BME280;48586;50.122;18.972;2022-10-28T13:25:22;99468.28;;;20.14;56.37
41040;BME280;48586;50.122;18.972;2022-10-28T13:28:31;99470.97;;;20.14;56.63
41040;BME280;48586;50.122;18.972;2022-10-28T13:31:36;99463.28;;;20.01;56.44
41040;BME280;48586;50.122;18.972;2022-10-28T13:34:40;99462.81;;;19.87;57.20
41040;BME280;48586;50.122;18.972;2022-10-28T13:37:45;99466.97;;;19.78;56.86
41040;BME280;48586;50.122;18.972;2022-10-28T13:41:25;99469.16;;;19.81;57.50
41040;BME280;48586;50.122;18.972;2022-10-28T13:44:28;99457.75;;;19.74;57.34
41040;BME280;48586;50.122;18.972;2022-10-28T13:47:31;99454.34;;;19.79;57.46
41040;BME280;48586;50.122;18.972;2022-10-28T13:50:34;99454.16;;;19.85;57.35
41040;BME280;48586;50.122;18.972;2022-10-28T13:53:38;99456.72;;;19.75;57.57
41040;BME280;48586;50.122;18.972;2022-10-28T13:56:44;99459.88;;;19.72;57.71
41040;BME280;48586;50.122;18.972;2022-10-28T13:59:50;99464.47;;;19.55;58.13
41040;BME280;48586;50.122;18.972;2022-10-28T14:02:55;99454.81;;;19.37;58.27
41040;BME280;48586;50.122;18.972;2022-10-28T14:06:00;99460.59;;;19.29;58.57
41040;BME280;48586;50.122;18.972;2022-10-28T14:09:02;99468.97;;;19.15;58.75
41040;BME280;48586;50.122;18.972;2022-10-28T14:12:13;99468.09;;;19.10;59.23
41040;BME280;48586;50.122;18.972;2022-10-28T14:15:20;99470.53;;;19.11;59.07
41040;BME280;48586;50.122;18.972;2022-10-28T14:18:22;99467.72;;;19.06;59.25
41040;BME280;48586;50.122;18.972;2022-10-28T14:21:38;99459.81;;;19.00;59.71
41040;BME280;48586;50.122;18.972;2022-10-28T14:24:41;99459.72;;;18.94;59.72
41040;BME280;48586;50.122;18.972;2022-10-28T14:27:44;99451.75;;;19.00;59.81
41040;BME280;48586;50.122;18.972;2022-10-28T14:31:17;99448.22;;;19.11;59.68
41040;BME280;48586;50.122;18.972;2022-10-28T14:34:32;99456.72;;;19.08;60.04
41040;BME280;48586;50.122;18.972;2022-10-28T14:37:56;99451.59;;;18.89;60.32
41040;BME280;48586;50.122;18.972;2022-10-28T14:41:10;99452.38;;;18.73;60.28
41040;BME280;48586;50.122;18.972;2022-10-28T14:44:34;99447.84;;;18.62;60.65
41040;BME280;48586;50.122;18.972;2022-10-28T14:48:09;99435.22;;;18.45;61.45
41040;BME280;48586;50.122;18.972;2022-10-28T14:51:17;99438.19;;;18.32;61.29
41040;BME280;48586;50.122;18.972;2022-10-28T14:54:31;99436.34;;;18.21;61.55
41040;BME280;48586;50.122;18.972;2022-10-28T14:57:36;99424.81;;;18.09;61.91
41040;BME280;48586;50.122;18.972;2022-10-28T15:00:44;99427.84;;;18.01;62.13
41040;BME280;48586;50.122;18.972;2022-10-28T15:03:50;99431.97;;;17.91;62.51
41040;BME280;48586;50.122;18.972;2022-10-28T15:06:52;99433.84;;;17.79;62.63
41040;BME280;48586;50.122;18.972;2022-10-28T15:09:56;99431.75;;;17.69;62.90
41040;BME280;48586;50.122;18.972;2022-10-28T15:12:59;99431.66;;;17.53;63.12
41040;BME280;48586;50.122;18.972;2022-10-28T15:16:01;99436.09;;;17.35;63.92
41040;BME280;48586;50.122;18.972;2022-10-28T15:19:05;99429.78;;;17.18;64.60
41040;BME280;48586;50.122;18.972;2022-10-28T15:22:19;99433.25;;;17.07;64.77
41040;BME280;48586;50.122;18.972;2022-10-28T15:25:23;99436.47;;;16.97;64.92
41040;BME280;48586;50.122;18.972;2022-10-28T15:28:25;99433.19;;;16.83;65.04
41040;BME280;48586;50.122;18.972;2022-10-28T15:31:27;99424.22;;;16.78;65.20
41040;BME280;48586;50.122;18.972;2022-10-28T15:34:30;99426.97;;;16.71;65.30
41040;BME280;48586;50.122;18.972;2022-10-28T15:37:35;99421.94;;;16.63;65.73
41040;BME280;48586;50.122;18.972;2022-10-28T15:40:39;99422.28;;;16.55;66.20
41040;BME280;48586;50.122;18.972;2022-10-28T15:43:52;99428.09;;;16.52;66.25
41040;BME280;48586;50.122;18.972;2022-10-28T15:46:55;99429.81;;;16.46;66.47
41040;BME280;48586;50.122;18.972;2022-10-28T15:50:16;99431.03;;;16.32;67.96
41040;BME280;48586;50.122;18.972;2022-10-28T15:53:31;99433.88;;;16.18;67.56
41040;BME280;48586;50.122;18.972;2022-10-28T15:56:53;99431.13;;;16.07;69.24
41040;BME280;48586;50.122;18.972;2022-10-28T16:00:18;99431.25;;;15.93;68.82
41040;BME280;48586;50.122;18.972;2022-10-28T16:03:24;99434.59;;;15.89;68.03
41040;BME280;48586;50.122;18.972;2022-10-28T16:06:28;99436.09;;;15.85;67.95
41040;BME280;48586;50.122;18.972;2022-10-28T16:09:32;99432.03;;;15.82;68.01
41040;BME280;48586;50.122;18.972;2022-10-28T16:12:36;99437.00;;;15.79;67.79
41040;BME280;48586;50.122;18.972;2022-10-28T16:15:44;99433.72;;;15.77;68.33
41040;BME280;48586;50.122;18.972;2022-10-28T16:18:54;99429.84;;;15.72;68.00
41040;BME280;48586;50.122;18.972;2022-10-28T16:22:00;99437.34;;;15.64;68.64
41040;BME280;48586;50.122;18.972;2022-10-28T16:25:07;99451.59;;;15.58;68.64
41040;BME280;48586;50.122;18.972;2022-10-28T16:28:19;99439.31;;;15.50;69.05
41040;BME280;48586;50.122;18.972;2022-10-28T16:31:25;99446.00;;;15.41;69.20
41040;BME280;48586;50.122;18.972;2022-10-28T16:34:28;99443.97;;;15.36;69.30
41040;BME280;48586;50.122;18.972;2022-10-28T16:37:33;99435.38;;;15.34;69.28